createdAt,value
2019-02-27T00:00:04.518Z,52.08
2019-02-27T00:01:02.752Z,52.39
2019-02-27T00:02:02.693Z,52.18
2019-02-27T00:03:02.688Z,52.08
2019-02-27T00:04:03.075Z,52.39
2019-02-27T00:05:02.668Z,52.91
2019-02-27T00:06:02.694Z,52.31
2019-02-27T00:07:02.640Z,53.13
2019-02-27T00:08:02.633Z,53.44
2019-02-27T00:09:02.617Z,53.13
2019-02-27T00:10:05.869Z,52.93
2019-02-27T00:11:02.601Z,53.03
2019-02-27T00:12:02.614Z,53.34
2019-02-27T00:13:02.573Z,52.51
2019-02-27T00:14:02.561Z,52.10
2019-02-27T00:15:05.038Z,52.18
2019-02-27T00:16:02.542Z,51.66
2019-02-27T00:17:02.560Z,51.76
2019-02-27T00:18:02.519Z,51.66
2019-02-27T00:19:02.516Z,51.35
2019-02-27T00:20:05.014Z,50.63
2019-02-27T00:21:02.486Z,51.12
2019-02-27T00:22:02.506Z,50.84
2019-02-27T00:23:02.465Z,51.35
2019-02-27T00:24:02.459Z,51.35
2019-02-27T00:25:03.379Z,51.15
2019-02-27T00:26:02.437Z,51.35
2019-02-27T00:27:02.444Z,51.04
2019-02-27T00:28:02.425Z,51.04
2019-02-27T00:29:02.401Z,51.15
2019-02-27T00:30:04.908Z,50.84
2019-02-27T00:31:02.714Z,50.63
2019-02-27T00:32:02.391Z,50.21
2019-02-27T00:33:02.364Z,50.71
2019-02-27T00:34:02.353Z,49.16
2019-02-27T00:35:06.517Z,49.65
2019-02-27T00:36:02.327Z,49.78
2019-02-27T00:37:02.337Z,48.75
2019-02-27T00:38:02.311Z,49.05
2019-02-27T00:39:02.293Z,49.05
2019-02-27T00:40:05.306Z,48.85
2019-02-27T00:41:02.272Z,48.44
2019-02-27T00:42:02.288Z,49.16
2019-02-27T00:43:02.253Z,48.85
2019-02-27T00:44:02.244Z,48.65
2019-02-27T00:45:02.229Z,48.75
2019-02-27T00:46:02.216Z,48.66
2019-02-27T00:47:02.252Z,48.85
2019-02-27T00:48:02.198Z,48.66
2019-02-27T00:49:02.186Z,48.77
2019-02-27T00:50:05.649Z,48.90
2019-02-27T00:51:02.567Z,47.97
2019-02-27T00:52:02.176Z,48.66
2019-02-27T00:53:02.144Z,49.31
2019-02-27T00:54:02.131Z,47.55
2019-02-27T00:55:04.675Z,46.29
2019-02-27T00:56:02.111Z,46.58
2019-02-27T00:57:02.124Z,47.61
2019-02-27T00:58:02.091Z,47.84
2019-02-27T00:59:02.105Z,47.34
2019-02-27T01:00:06.306Z,47.86
2019-02-27T01:01:03.060Z,48.32
2019-02-27T01:02:02.076Z,47.80
2019-02-27T01:03:02.041Z,46.75
2019-02-27T01:04:02.506Z,45.38
2019-02-27T01:05:02.027Z,42.98
2019-02-27T01:06:02.006Z,41.93
2019-02-27T01:07:02.027Z,42.34
2019-02-27T01:08:01.991Z,41.91
2019-02-27T01:09:03.944Z,41.06
2019-02-27T01:10:01.965Z,40.34
2019-02-27T01:11:01.950Z,41.89
2019-02-27T01:12:01.989Z,41.60
2019-02-27T01:13:01.925Z,42.84
2019-02-27T01:14:03.954Z,42.65
2019-02-27T01:15:01.909Z,42.53
2019-02-27T01:16:01.900Z,43.44
2019-02-27T01:17:01.909Z,43.56
2019-02-27T01:18:01.886Z,43.77
2019-02-27T01:19:02.229Z,43.35
2019-02-27T01:20:01.855Z,43.23
2019-02-27T01:21:01.850Z,43.56
2019-02-27T01:22:01.858Z,43.46
2019-02-27T01:23:01.827Z,43.87
2019-02-27T01:24:01.814Z,43.65
2019-02-27T01:25:01.789Z,44.49
2019-02-27T01:26:01.781Z,44.29
2019-02-27T01:27:04.622Z,44.20
2019-02-27T01:28:01.769Z,43.99
2019-02-27T01:29:01.757Z,44.08
2019-02-27T01:30:01.752Z,44.08
2019-02-27T01:31:01.739Z,44.18
2019-02-27T01:32:01.753Z,44.49
2019-02-27T01:33:03.928Z,44.39
2019-02-27T01:34:01.715Z,44.49
2019-02-27T01:35:01.696Z,44.80
2019-02-27T01:36:01.690Z,44.82
2019-02-27T01:37:01.711Z,45.13
2019-02-27T01:38:05.046Z,44.93
2019-02-27T01:39:01.654Z,45.23
2019-02-27T01:40:01.638Z,46.06
2019-02-27T01:41:01.636Z,46.29
2019-02-27T01:42:01.617Z,46.08
2019-02-27T01:43:05.553Z,46.29
2019-02-27T01:44:01.600Z,46.11
2019-02-27T01:45:01.586Z,46.85
2019-02-27T01:46:01.587Z,47.80
2019-02-27T01:47:02.916Z,47.80
2019-02-27T01:48:01.582Z,48.03
2019-02-27T01:49:01.546Z,46.23
2019-02-27T01:50:01.533Z,46.72
2019-02-27T01:51:01.524Z,46.93
2019-02-27T01:52:02.204Z,47.14
2019-02-27T01:53:01.540Z,47.14
2019-02-27T01:54:01.489Z,46.41
2019-02-27T01:55:01.483Z,46.62
2019-02-27T01:56:01.476Z,46.93
2019-02-27T01:57:02.959Z,47.97
2019-02-27T01:58:01.475Z,48.07
2019-02-27T01:59:01.440Z,48.38
2019-02-27T02:00:01.425Z,48.50
2019-02-27T02:01:01.413Z,48.92
2019-02-27T02:02:03.478Z,48.50
2019-02-27T02:03:01.424Z,49.66
2019-02-27T02:04:01.388Z,49.25
2019-02-27T02:05:01.380Z,50.29
2019-02-27T02:06:01.365Z,50.70
2019-02-27T02:07:01.350Z,50.70
2019-02-27T02:08:01.377Z,50.80
2019-02-27T02:09:01.334Z,50.62
2019-02-27T02:10:01.330Z,50.51
2019-02-27T02:11:02.032Z,50.49
2019-02-27T02:12:01.298Z,50.62
2019-02-27T02:13:01.315Z,51.14
2019-02-27T02:14:01.277Z,51.55
2019-02-27T02:15:01.271Z,50.82
2019-02-27T02:16:01.547Z,50.93
2019-02-27T02:17:01.244Z,51.24
2019-02-27T02:18:01.266Z,50.82
2019-02-27T02:19:01.229Z,51.45
2019-02-27T02:20:01.217Z,51.01
2019-02-27T02:21:01.839Z,51.24
2019-02-27T02:22:01.189Z,51.24
2019-02-27T02:23:01.208Z,50.93
2019-02-27T02:24:01.180Z,51.24
2019-02-27T02:25:01.165Z,51.65
2019-02-27T02:26:01.812Z,51.76
2019-02-27T02:27:01.141Z,52.17
2019-02-27T02:28:01.158Z,51.76
2019-02-27T02:29:01.119Z,52.40
2019-02-27T02:30:01.121Z,52.61
2019-02-27T02:31:05.043Z,52.51
2019-02-27T02:32:02.088Z,52.30
2019-02-27T02:33:01.098Z,52.30
2019-02-27T02:34:05.119Z,53.33
2019-02-27T02:35:02.104Z,52.92
2019-02-27T02:36:01.046Z,53.46
2019-02-27T02:37:02.541Z,53.03
2019-02-27T02:38:01.056Z,53.88
2019-02-27T02:39:01.013Z,53.77
2019-02-27T02:40:01.002Z,53.38
2019-02-27T02:41:00.991Z,53.77
2019-02-27T02:42:00.977Z,54.21
2019-02-27T02:43:03.140Z,53.17
2019-02-27T02:44:00.961Z,53.17
2019-02-27T02:45:00.950Z,53.88
2019-02-27T02:46:00.943Z,53.98
2019-02-27T02:47:00.918Z,54.73
2019-02-27T02:48:00.948Z,54.83
2019-02-27T02:49:06.487Z,55.04
2019-02-27T02:50:01.895Z,55.56
2019-02-27T02:51:00.888Z,54.94
2019-02-27T02:52:04.528Z,56.21
2019-02-27T02:53:00.891Z,55.90
2019-02-27T02:54:02.150Z,56.41
2019-02-27T02:55:00.841Z,56.31
2019-02-27T02:56:00.835Z,56.76
2019-02-27T02:57:01.970Z,56.41
2019-02-27T02:58:00.859Z,56.21
2019-02-27T02:59:00.797Z,56.21
2019-02-27T03:00:01.105Z,56.31
2019-02-27T03:01:00.782Z,56.21
2019-02-27T03:02:00.769Z,56.31
2019-02-27T03:03:01.864Z,56.10
2019-02-27T03:04:00.788Z,56.24
2019-02-27T03:05:00.745Z,56.45
2019-02-27T03:06:00.729Z,56.86
2019-02-27T03:07:00.729Z,56.78
2019-02-27T03:08:00.705Z,57.40
2019-02-27T03:09:00.738Z,57.17
2019-02-27T03:10:06.999Z,57.30
2019-02-27T03:11:01.669Z,56.99
2019-02-27T03:12:00.665Z,57.40
2019-02-27T03:13:05.887Z,56.86
2019-02-27T03:14:01.668Z,56.86
2019-02-27T03:15:00.682Z,57.07
2019-02-27T03:16:04.341Z,57.51
2019-02-27T03:17:01.642Z,57.40
2019-02-27T03:18:00.601Z,56.47
2019-02-27T03:19:04.884Z,56.68
2019-02-27T03:20:00.574Z,57.38
2019-02-27T03:21:00.564Z,56.34
2019-02-27T03:22:03.749Z,57.28
2019-02-27T03:23:00.545Z,57.09
2019-02-27T03:24:00.561Z,57.20
2019-02-27T03:25:04.060Z,57.30
2019-02-27T03:26:00.512Z,57.30
2019-02-27T03:27:00.503Z,57.30
2019-02-27T03:28:04.455Z,57.20
2019-02-27T03:29:00.505Z,56.99
2019-02-27T03:30:00.521Z,57.20
2019-02-27T03:31:00.464Z,57.22
2019-02-27T03:32:01.282Z,57.30
2019-02-27T03:33:00.433Z,57.71
2019-02-27T03:34:07.846Z,57.71
2019-02-27T03:35:01.418Z,57.51
2019-02-27T03:36:03.359Z,57.61
2019-02-27T03:37:00.393Z,57.53
2019-02-27T03:38:00.384Z,57.51
2019-02-27T03:39:00.409Z,57.01
2019-02-27T03:40:00.394Z,57.30
2019-02-27T03:41:00.363Z,56.78
2019-02-27T03:42:00.341Z,56.57
2019-02-27T03:43:00.329Z,56.16
2019-02-27T03:44:00.345Z,56.37
2019-02-27T03:45:00.498Z,56.03
2019-02-27T03:46:03.122Z,55.82
2019-02-27T03:47:01.306Z,55.62
2019-02-27T03:48:00.273Z,55.10
2019-02-27T03:49:03.587Z,54.58
2019-02-27T03:50:00.500Z,54.44
2019-02-27T03:51:00.244Z,54.55
2019-02-27T03:52:01.278Z,53.61
2019-02-27T03:53:00.221Z,54.13
2019-02-27T03:54:00.232Z,54.03
2019-02-27T03:55:00.271Z,53.10
2019-02-27T03:56:00.190Z,53.00
2019-02-27T03:57:00.189Z,54.03
2019-02-27T03:58:00.165Z,53.82
2019-02-27T03:59:05.518Z,53.92
2019-02-27T04:00:01.159Z,53.10
2019-02-27T04:01:00.138Z,53.54
2019-02-27T04:02:05.737Z,52.69
2019-02-27T04:03:01.111Z,52.69
2019-02-27T04:04:00.145Z,52.27
2019-02-27T04:05:05.312Z,51.62
2019-02-27T04:06:01.085Z,50.77
2019-02-27T04:07:00.071Z,50.56
2019-02-27T04:08:00.057Z,50.67
2019-02-27T04:09:00.079Z,50.35
2019-02-27T04:10:00.038Z,50.25
2019-02-27T04:11:05.610Z,50.77
2019-02-27T04:12:01.016Z,50.46
2019-02-27T04:13:00.022Z,51.08
2019-02-27T04:14:04.929Z,50.98
2019-02-27T04:15:00.983Z,50.67
2019-02-27T04:15:59.975Z,51.08
2019-02-27T04:17:05.484Z,51.42
2019-02-27T04:18:00.952Z,50.90
2019-02-27T04:19:04.532Z,52.14
2019-02-27T04:19:59.936Z,51.73
2019-02-27T04:20:59.917Z,52.35
2019-02-27T04:22:01.144Z,52.04
2019-02-27T04:22:59.900Z,52.58
2019-02-27T04:23:59.931Z,53.82
2019-02-27T04:24:59.876Z,53.23
2019-02-27T04:26:05.359Z,53.25
2019-02-27T04:27:00.851Z,53.25
2019-02-27T04:27:59.856Z,54.08
2019-02-27T04:29:04.067Z,53.15
2019-02-27T04:30:01.366Z,53.12
2019-02-27T04:30:59.865Z,52.58
2019-02-27T04:31:59.803Z,53.00
2019-02-27T04:32:59.789Z,52.37
2019-02-27T04:34:00.923Z,52.37
2019-02-27T04:34:59.793Z,52.69
2019-02-27T04:35:59.758Z,52.37
2019-02-27T04:36:59.747Z,52.79
2019-02-27T04:37:59.738Z,52.48
2019-02-27T04:39:00.067Z,52.89
2019-02-27T04:39:59.739Z,52.48
2019-02-27T04:40:59.699Z,53.00
2019-02-27T04:41:59.697Z,52.69
2019-02-27T04:42:59.967Z,52.35
2019-02-27T04:43:59.682Z,52.58
2019-02-27T04:44:59.681Z,53.20
2019-02-27T04:45:59.648Z,53.20
2019-02-27T04:46:59.636Z,53.12
2019-02-27T04:47:59.623Z,53.44
2019-02-27T04:49:03.891Z,53.75
2019-02-27T04:50:00.630Z,53.64
2019-02-27T04:50:59.594Z,53.96
2019-02-27T04:51:59.587Z,54.16
2019-02-27T04:52:59.576Z,54.08
2019-02-27T04:53:59.568Z,54.29
2019-02-27T04:54:59.581Z,54.16
2019-02-27T04:55:59.539Z,53.75
2019-02-27T04:56:59.535Z,53.96
2019-02-27T04:57:59.521Z,53.96
2019-02-27T04:58:59.509Z,54.47
2019-02-27T04:59:59.520Z,54.08
2019-02-27T05:00:59.822Z,54.08
2019-02-27T05:01:59.477Z,54.39
2019-02-27T05:02:59.465Z,54.08
2019-02-27T05:04:01.408Z,53.54
2019-02-27T05:04:59.468Z,53.33
2019-02-27T05:05:59.435Z,54.60
2019-02-27T05:06:59.423Z,54.08
2019-02-27T05:07:59.419Z,55.12
2019-02-27T05:09:00.233Z,55.02
2019-02-27T05:09:59.419Z,55.20
2019-02-27T05:10:59.379Z,55.02
2019-02-27T05:11:59.384Z,55.64
2019-02-27T05:12:59.357Z,55.54
2019-02-27T05:13:59.349Z,55.85
2019-02-27T05:15:00.858Z,56.26
2019-02-27T05:15:59.330Z,56.57
2019-02-27T05:16:59.706Z,56.68
2019-02-27T05:17:59.311Z,56.26
2019-02-27T05:19:03.574Z,56.81
2019-02-27T05:19:59.311Z,56.70
2019-02-27T05:20:59.274Z,56.37
2019-02-27T05:22:01.230Z,56.16
2019-02-27T05:23:00.358Z,56.37
2019-02-27T05:23:59.250Z,56.78
2019-02-27T05:24:59.261Z,56.16
2019-02-27T05:25:59.220Z,56.78
2019-02-27T05:27:00.733Z,56.37
2019-02-27T05:28:01.423Z,57.32
2019-02-27T05:28:59.187Z,56.91
2019-02-27T05:30:00.078Z,58.15
2019-02-27T05:30:59.167Z,58.50
2019-02-27T05:31:59.151Z,59.14
2019-02-27T05:33:02.236Z,59.77
2019-02-27T05:33:59.136Z,59.56
2019-02-27T05:34:59.143Z,60.00
2019-02-27T05:35:59.113Z,60.63
2019-02-27T05:36:59.109Z,61.36
2019-02-27T05:37:59.089Z,61.77
2019-02-27T05:38:59.082Z,62.11
2019-02-27T05:39:59.278Z,62.22
2019-02-27T05:41:00.139Z,61.98
2019-02-27T05:42:00.865Z,61.67
2019-02-27T05:42:59.039Z,61.67
2019-02-27T05:43:59.028Z,62.11
2019-02-27T05:44:59.029Z,62.40
2019-02-27T05:46:02.763Z,62.32
2019-02-27T05:46:58.991Z,62.29
2019-02-27T05:47:58.984Z,62.19
2019-02-27T05:48:58.978Z,62.08
2019-02-27T05:50:00.460Z,62.19
2019-02-27T05:50:58.977Z,61.57
2019-02-27T05:51:58.940Z,61.85
2019-02-27T05:52:58.934Z,61.22
2019-02-27T05:53:59.197Z,61.74
2019-02-27T05:54:58.918Z,61.67
2019-02-27T05:55:58.926Z,61.22
2019-02-27T05:56:58.886Z,61.02
2019-02-27T05:57:58.880Z,61.22
2019-02-27T05:58:58.865Z,60.71
2019-02-27T06:00:02.306Z,60.81
2019-02-27T06:00:58.872Z,59.77
2019-02-27T06:01:58.850Z,60.50
2019-02-27T06:02:58.823Z,60.71
2019-02-27T06:03:58.820Z,61.43
2019-02-27T06:04:59.147Z,61.33
2019-02-27T06:05:58.815Z,60.71
2019-02-27T06:06:59.099Z,60.50
2019-02-27T06:08:02.023Z,60.29
2019-02-27T06:08:58.768Z,60.71
2019-02-27T06:09:58.811Z,60.19
2019-02-27T06:10:58.763Z,59.77
2019-02-27T06:11:58.728Z,58.50
2019-02-27T06:12:58.716Z,58.50
2019-02-27T06:13:58.712Z,58.39
2019-02-27T06:14:58.696Z,58.73
2019-02-27T06:16:02.944Z,58.62
2019-02-27T06:16:58.673Z,58.73
2019-02-27T06:17:58.660Z,57.61
2019-02-27T06:18:58.654Z,59.07
2019-02-27T06:19:58.641Z,58.23
2019-02-27T06:20:58.657Z,58.23
2019-02-27T06:21:58.617Z,57.51
2019-02-27T06:22:58.621Z,57.51
2019-02-27T06:23:58.602Z,56.55
2019-02-27T06:24:58.585Z,56.31
2019-02-27T06:25:59.450Z,56.10
2019-02-27T06:26:58.564Z,55.46
2019-02-27T06:27:58.554Z,54.75
2019-02-27T06:28:58.549Z,54.34
2019-02-27T06:29:59.791Z,55.38
2019-02-27T06:30:58.545Z,56.02
2019-02-27T06:31:58.528Z,55.71
2019-02-27T06:32:58.501Z,54.39
2019-02-27T06:33:59.082Z,53.35
2019-02-27T06:34:59.445Z,51.48
2019-02-27T06:35:58.496Z,52.39
2019-02-27T06:36:58.459Z,50.47
2019-02-27T06:37:58.451Z,48.54
2019-02-27T06:39:00.335Z,46.95
2019-02-27T06:39:58.427Z,44.74
2019-02-27T06:40:59.426Z,43.48
2019-02-27T06:41:58.409Z,43.46
2019-02-27T06:42:58.400Z,42.07
2019-02-27T06:43:58.959Z,41.25
2019-02-27T06:44:58.373Z,41.13
2019-02-27T06:45:58.388Z,39.58
2019-02-27T06:46:58.351Z,39.86
2019-02-27T06:47:58.346Z,39.25
2019-02-27T06:48:58.329Z,39.76
2019-02-27T06:49:58.321Z,39.86
2019-02-27T06:51:00.794Z,39.45
2019-02-27T06:51:58.295Z,38.93
2019-02-27T06:52:58.291Z,38.92
2019-02-27T06:53:58.279Z,38.71
2019-02-27T06:54:58.278Z,38.71
2019-02-27T06:56:02.746Z,38.81
2019-02-27T06:56:59.248Z,38.50
2019-02-27T06:57:58.235Z,37.99
2019-02-27T06:58:58.224Z,37.66
2019-02-27T07:00:02.062Z,37.44
2019-02-27T07:00:58.225Z,37.74
2019-02-27T07:01:58.189Z,37.54
2019-02-27T07:02:58.185Z,36.82
2019-02-27T07:03:58.193Z,36.71
2019-02-27T07:04:58.159Z,36.60
2019-02-27T07:05:58.195Z,37.11
2019-02-27T07:06:58.136Z,36.49
2019-02-27T07:07:58.132Z,35.97
2019-02-27T07:08:58.114Z,36.80
2019-02-27T07:09:58.108Z,36.18
2019-02-27T07:11:09.917Z,36.70
2019-02-27T07:11:59.108Z,35.67
2019-02-27T07:12:58.074Z,35.15
2019-02-27T07:13:58.065Z,35.15
2019-02-27T07:14:58.066Z,35.87
2019-02-27T07:15:58.044Z,36.49
2019-02-27T07:16:58.077Z,36.80
2019-02-27T07:17:58.017Z,36.39
2019-02-27T07:18:58.009Z,37.63
2019-02-27T07:19:58.017Z,37.42
2019-02-27T07:20:58.496Z,38.45
2019-02-27T07:21:58.005Z,38.45
2019-02-27T07:22:57.968Z,40.00
2019-02-27T07:23:58.694Z,39.81
2019-02-27T07:24:57.944Z,40.53
2019-02-27T07:25:57.950Z,41.69
2019-02-27T07:26:57.953Z,40.31
2019-02-27T07:27:57.919Z,39.34
2019-02-27T07:28:57.901Z,39.59
2019-02-27T07:29:57.893Z,36.12
2019-02-27T07:30:57.881Z,34.62
2019-02-27T07:31:57.894Z,34.17
2019-02-27T07:32:57.856Z,32.92
2019-02-27T07:33:57.844Z,33.09
2019-02-27T07:34:57.839Z,33.09
2019-02-27T07:35:57.824Z,33.29
2019-02-27T07:36:57.842Z,32.67
2019-02-27T07:37:57.805Z,31.08
2019-02-27T07:38:58.309Z,29.60
2019-02-27T07:39:57.786Z,28.34
2019-02-27T07:40:57.768Z,27.85
2019-02-27T07:41:57.808Z,28.99
2019-02-27T07:42:57.759Z,28.78
2019-02-27T07:43:57.745Z,29.28
2019-02-27T07:44:57.728Z,27.94
2019-02-27T07:45:57.715Z,27.85
2019-02-27T07:46:58.113Z,28.97
2019-02-27T07:47:57.700Z,28.31
2019-02-27T07:48:57.685Z,28.32
2019-02-27T07:49:57.672Z,28.94
2019-02-27T07:50:57.664Z,28.84
2019-02-27T07:51:58.053Z,29.25
2019-02-27T07:52:57.644Z,29.33
2019-02-27T07:53:57.633Z,30.58
2019-02-27T07:54:57.635Z,29.03
2019-02-27T07:55:57.616Z,29.52
2019-02-27T07:56:57.635Z,28.61
2019-02-27T07:57:58.805Z,29.05
2019-02-27T07:58:57.576Z,28.83
2019-02-27T07:59:57.568Z,29.03
2019-02-27T08:00:57.561Z,28.94
2019-02-27T08:02:02.319Z,30.18
2019-02-27T08:02:58.533Z,28.75
2019-02-27T08:03:57.525Z,29.45
2019-02-27T08:04:57.529Z,29.36
2019-02-27T08:05:59.815Z,29.35
2019-02-27T08:06:57.523Z,28.14
2019-02-27T08:07:57.487Z,27.71
2019-02-27T08:08:57.848Z,28.92
2019-02-27T08:09:57.460Z,29.02
2019-02-27T08:10:57.452Z,28.31
2019-02-27T08:11:57.477Z,28.73
2019-02-27T08:12:57.467Z,29.03
2019-02-27T08:13:57.487Z,29.24
2019-02-27T08:14:57.556Z,29.24
2019-02-27T08:15:58.104Z,29.33
2019-02-27T08:16:58.162Z,29.02
2019-02-27T08:17:58.541Z,28.80
2019-02-27T08:18:57.366Z,28.88
2019-02-27T08:19:57.351Z,27.73
2019-02-27T08:20:57.341Z,28.45
2019-02-27T08:21:57.372Z,27.94
2019-02-27T08:22:57.918Z,28.04
2019-02-27T08:23:57.316Z,28.66
2019-02-27T08:24:57.307Z,27.34
2019-02-27T08:25:57.321Z,27.95
2019-02-27T08:26:57.302Z,27.55
2019-02-27T08:27:57.271Z,28.25
2019-02-27T08:28:57.258Z,27.85
2019-02-27T08:29:57.242Z,27.23
2019-02-27T08:30:57.232Z,27.03
2019-02-27T08:32:00.767Z,27.22
2019-02-27T08:32:57.214Z,27.17
2019-02-27T08:33:57.210Z,25.11
2019-02-27T08:34:57.192Z,24.51
2019-02-27T08:35:57.186Z,23.80
2019-02-27T08:36:57.193Z,24.90
2019-02-27T08:38:02.652Z,24.52
2019-02-27T08:38:58.151Z,25.21
2019-02-27T08:39:57.136Z,26.23
2019-02-27T08:40:58.352Z,24.91
2019-02-27T08:41:57.153Z,24.98
2019-02-27T08:42:57.107Z,24.52
2019-02-27T08:43:57.108Z,23.06
2019-02-27T08:44:57.085Z,21.03
2019-02-27T08:45:57.074Z,22.33
2019-02-27T08:46:57.096Z,20.21
2019-02-27T08:47:57.075Z,19.33
2019-02-27T08:48:57.042Z,21.17
2019-02-27T08:49:58.054Z,21.40
2019-02-27T08:50:57.030Z,22.60
2019-02-27T08:51:57.014Z,23.34
2019-02-27T08:52:57.896Z,22.83
2019-02-27T08:54:57.968Z,23.99
2019-02-27T08:55:56.959Z,24.10
2019-02-27T08:56:57.507Z,24.92
2019-02-27T08:57:57.197Z,24.98
2019-02-27T08:58:56.930Z,24.26
2019-02-27T08:59:56.917Z,24.44
2019-02-27T09:00:56.911Z,25.40
2019-02-27T09:01:56.894Z,25.59
2019-02-27T09:02:56.948Z,24.98
2019-02-27T09:03:56.873Z,24.98
2019-02-27T09:04:56.870Z,26.51
2019-02-27T09:05:56.848Z,25.31
2019-02-27T09:07:02.132Z,25.81
2019-02-27T09:07:57.933Z,25.69
2019-02-27T09:08:56.819Z,25.06
2019-02-27T09:09:56.815Z,24.35
2019-02-27T09:10:56.797Z,23.74
2019-02-27T09:11:56.784Z,23.33
2019-02-27T09:13:04.803Z,23.11
2019-02-27T09:13:57.776Z,22.74
2019-02-27T09:14:56.765Z,23.57
2019-02-27T09:15:56.755Z,24.18
2019-02-27T09:16:56.735Z,24.08
2019-02-27T09:17:59.261Z,24.72
2019-02-27T09:18:56.710Z,24.99
2019-02-27T09:19:56.705Z,24.47
2019-02-27T09:20:56.692Z,23.84
2019-02-27T09:21:56.679Z,24.75
2019-02-27T09:22:56.695Z,24.71
2019-02-27T09:23:56.653Z,23.16
2019-02-27T09:24:57.212Z,23.16
2019-02-27T09:25:57.436Z,22.62
2019-02-27T09:26:56.622Z,22.81
2019-02-27T09:27:56.642Z,22.00
2019-02-27T09:28:56.600Z,21.61
2019-02-27T09:29:56.594Z,21.92
2019-02-27T09:30:56.586Z,22.24
2019-02-27T09:31:56.570Z,22.76
2019-02-27T09:32:56.596Z,23.26
2019-02-27T09:33:56.549Z,23.16
2019-02-27T09:34:57.079Z,23.02
2019-02-27T09:35:56.533Z,22.22
2019-02-27T09:36:56.517Z,21.95
2019-02-27T09:37:56.562Z,23.06
2019-02-27T09:38:57.638Z,23.36
2019-02-27T09:39:56.480Z,23.58
2019-02-27T09:40:56.472Z,23.56
2019-02-27T09:41:56.461Z,23.06
2019-02-27T09:42:56.475Z,23.35
2019-02-27T09:43:58.580Z,23.04
2019-02-27T09:44:56.436Z,23.18
2019-02-27T09:45:56.421Z,23.10
2019-02-27T09:46:56.409Z,24.49
2019-02-27T09:47:59.583Z,24.30
2019-02-27T09:48:56.405Z,24.31
2019-02-27T09:49:56.382Z,24.33
2019-02-27T09:50:56.998Z,25.26
2019-02-27T09:51:57.000Z,26.50
2019-02-27T09:52:56.368Z,26.39
2019-02-27T09:53:56.338Z,27.03
2019-02-27T09:54:56.322Z,27.23
2019-02-27T09:55:56.309Z,27.66
2019-02-27T09:56:56.306Z,27.05
2019-02-27T09:57:56.321Z,26.04
2019-02-27T09:58:56.287Z,25.94
2019-02-27T09:59:56.338Z,25.02
2019-02-27T10:00:59.137Z,24.83
2019-02-27T10:01:57.261Z,25.75
2019-02-27T10:02:58.079Z,26.03
2019-02-27T10:03:56.234Z,26.75
2019-02-27T10:05:01.609Z,28.17
2019-02-27T10:05:57.204Z,25.65
2019-02-27T10:06:56.209Z,25.15
2019-02-27T10:07:57.500Z,25.05
2019-02-27T10:08:56.415Z,25.66
2019-02-27T10:09:56.164Z,26.17
2019-02-27T10:10:56.162Z,25.76
2019-02-27T10:11:56.141Z,25.85
2019-02-27T10:12:56.159Z,27.57
2019-02-27T10:13:56.119Z,27.47
2019-02-27T10:14:56.122Z,27.15
2019-02-27T10:16:00.572Z,26.66
2019-02-27T10:16:57.087Z,27.76
2019-02-27T10:17:56.109Z,27.17
2019-02-27T10:18:56.067Z,27.80
2019-02-27T10:20:01.266Z,27.80
2019-02-27T10:20:57.046Z,28.41
2019-02-27T10:21:56.029Z,28.81
2019-02-27T10:22:56.043Z,28.62
2019-02-27T10:23:56.009Z,29.85
2019-02-27T10:24:56.000Z,29.85
2019-02-27T10:25:55.988Z,30.13
2019-02-27T10:26:55.972Z,29.93
2019-02-27T10:27:56.002Z,30.46
2019-02-27T10:28:55.958Z,30.55
2019-02-27T10:29:55.951Z,32.09
2019-02-27T10:30:55.936Z,31.99
2019-02-27T10:31:58.309Z,32.00
2019-02-27T10:32:55.979Z,32.39
2019-02-27T10:33:55.913Z,31.58
2019-02-27T10:34:55.890Z,31.58
2019-02-27T10:35:55.876Z,31.18
2019-02-27T10:36:55.886Z,31.48
2019-02-27T10:37:55.932Z,32.31
2019-02-27T10:38:55.869Z,32.70
2019-02-27T10:39:55.837Z,32.19
2019-02-27T10:40:55.824Z,33.22
2019-02-27T10:41:55.813Z,33.22
2019-02-27T10:42:55.812Z,32.81
2019-02-27T10:43:56.665Z,32.81
2019-02-27T10:44:55.783Z,31.60
2019-02-27T10:45:55.780Z,30.87
2019-02-27T10:46:59.494Z,30.67
2019-02-27T10:47:55.748Z,31.58
2019-02-27T10:48:55.772Z,30.27
2019-02-27T10:49:55.724Z,30.27
2019-02-27T10:50:55.716Z,29.57
2019-02-27T10:51:55.708Z,30.28
2019-02-27T10:52:55.698Z,31.60
2019-02-27T10:53:55.712Z,32.81
2019-02-27T10:54:55.673Z,30.99
2019-02-27T10:55:56.146Z,32.61
2019-02-27T10:56:56.364Z,31.10
2019-02-27T10:57:55.646Z,31.19
2019-02-27T10:58:55.657Z,31.29
2019-02-27T10:59:55.616Z,30.99
2019-02-27T11:00:58.120Z,32.00
2019-02-27T11:01:56.598Z,32.41
2019-02-27T11:02:55.587Z,34.11
2019-02-27T11:03:55.607Z,32.79
2019-02-27T11:04:55.569Z,33.30
2019-02-27T11:05:55.702Z,29.86
2019-02-27T11:06:55.545Z,29.86
2019-02-27T11:07:55.543Z,31.58
2019-02-27T11:08:55.549Z,31.48
2019-02-27T11:09:55.511Z,30.47
2019-02-27T11:10:55.499Z,29.66
2019-02-27T11:11:55.492Z,31.58
2019-02-27T11:12:55.493Z,31.48
2019-02-27T11:13:55.497Z,31.37
2019-02-27T11:14:55.458Z,31.16
2019-02-27T11:15:55.452Z,30.76
2019-02-27T11:16:55.435Z,30.35
2019-02-27T11:17:55.421Z,30.55
2019-02-27T11:18:55.442Z,30.96
2019-02-27T11:19:55.405Z,30.47
2019-02-27T11:20:58.232Z,29.74
2019-02-27T11:21:58.395Z,31.25
2019-02-27T11:22:55.370Z,31.15
2019-02-27T11:23:55.384Z,29.73
2019-02-27T11:24:55.348Z,30.13
2019-02-27T11:25:56.971Z,30.13
2019-02-27T11:26:56.922Z,29.63
2019-02-27T11:27:55.317Z,31.15
2019-02-27T11:28:55.330Z,29.22
2019-02-27T11:29:59.607Z,29.93
2019-02-27T11:30:56.285Z,30.04
2019-02-27T11:31:55.280Z,27.81
2019-02-27T11:32:57.815Z,28.82
2019-02-27T11:33:55.274Z,29.43
2019-02-27T11:34:55.243Z,28.81
2019-02-27T11:35:55.240Z,31.55
2019-02-27T11:36:55.219Z,31.74
2019-02-27T11:37:55.213Z,28.70
2019-02-27T11:38:56.678Z,28.61
2019-02-27T11:39:55.190Z,28.59
2019-02-27T11:40:55.172Z,28.59
2019-02-27T11:41:55.160Z,27.78
2019-02-27T11:42:55.158Z,28.59
2019-02-27T11:43:55.164Z,28.59
2019-02-27T11:44:55.128Z,28.09
2019-02-27T11:45:57.532Z,26.57
2019-02-27T11:46:58.905Z,27.18
2019-02-27T11:47:55.099Z,25.96
2019-02-27T11:48:57.039Z,28.59
2019-02-27T11:49:55.072Z,26.77
2019-02-27T11:50:55.071Z,27.38
2019-02-27T11:51:56.974Z,27.28
2019-02-27T11:52:55.050Z,26.77
2019-02-27T11:53:55.057Z,27.89
2019-02-27T11:54:55.051Z,27.18
2019-02-27T11:55:55.015Z,25.56
2019-02-27T11:56:56.910Z,27.89
2019-02-27T11:57:54.991Z,27.26
2019-02-27T11:58:54.979Z,27.47
2019-02-27T11:59:54.999Z,27.77
2019-02-27T12:00:54.970Z,27.97
2019-02-27T12:01:56.168Z,26.46
2019-02-27T12:02:54.943Z,27.17
2019-02-27T12:03:54.927Z,25.95
2019-02-27T12:04:56.638Z,26.56
2019-02-27T12:05:54.911Z,28.08
2019-02-27T12:06:54.901Z,27.77
2019-02-27T12:07:54.883Z,29.19
2019-02-27T12:08:59.552Z,28.06
2019-02-27T12:09:55.887Z,26.97
2019-02-27T12:10:54.848Z,27.17
2019-02-27T12:11:54.837Z,28.17
2019-02-27T12:12:59.728Z,27.56
2019-02-27T12:13:55.817Z,27.76
2019-02-27T12:14:54.842Z,27.96
2019-02-27T12:15:54.798Z,29.06
2019-02-27T12:16:54.786Z,27.95
2019-02-27T12:17:59.720Z,26.33
2019-02-27T12:18:55.763Z,27.64
2019-02-27T12:19:54.780Z,28.75
2019-02-27T12:20:54.740Z,26.13
2019-02-27T12:21:59.559Z,26.02
2019-02-27T12:22:55.727Z,26.12
2019-02-27T12:23:54.714Z,28.32
2019-02-27T12:24:54.732Z,27.10
2019-02-27T12:25:54.695Z,27.91
2019-02-27T12:26:54.686Z,26.40
2019-02-27T12:27:54.670Z,27.10
2019-02-27T12:28:54.658Z,26.40
2019-02-27T12:29:54.676Z,25.78
2019-02-27T12:30:54.638Z,26.39
2019-02-27T12:31:54.623Z,26.17
2019-02-27T12:32:56.736Z,25.65
2019-02-27T12:33:54.601Z,25.35
2019-02-27T12:34:54.616Z,25.14
2019-02-27T12:35:54.593Z,24.33
2019-02-27T12:36:54.574Z,25.23
2019-02-27T12:37:54.558Z,25.02
2019-02-27T12:38:54.547Z,24.22
2019-02-27T12:39:54.565Z,24.21
2019-02-27T12:40:58.283Z,25.99
2019-02-27T12:41:54.524Z,24.68
2019-02-27T12:42:54.511Z,25.35
2019-02-27T12:43:54.495Z,24.77
2019-02-27T12:44:54.697Z,25.97
2019-02-27T12:45:54.471Z,24.26
2019-02-27T12:46:54.471Z,25.87
2019-02-27T12:47:54.459Z,24.16
2019-02-27T12:48:54.443Z,25.15
2019-02-27T12:49:54.950Z,24.32
2019-02-27T12:50:54.418Z,23.12
2019-02-27T12:51:54.409Z,23.33
2019-02-27T12:52:54.397Z,23.41